sensor_id;sensor_type;location;lat;lon;timestamp;temperature;humidity
17815;DHT22;9031;50.974;11.330;2024-01-15T00:02:12;1.00;99.90
17815;DHT22;9031;50.974;11.330;2024-01-15T00:04:38;1.00;99.90
17815;DHT22;9031;50.974;11.330;2024-01-15T00:07:05;1.00;99.90
17815;DHT22;9031;50.974;11.330;2024-01-15T00:09:31;1.10;99.90
17815;DHT22;9031;50.974;11.330;2024-01-15T00:11:56;1.10;99.90
17815;DHT22;9031;50.974;11.330;2024-01-15T00:14:22;1.10;99.90
17815;DHT22;9031;50.974;11.330;2024-01-15T00:16:48;1.10;99.90
17815;DHT22;9031;50.974;11.330;2024-01-15T00:19:16;1.00;99.90
17815;DHT22;9031;50.974;11.330;2024-01-15T00:21:41;1.00;99.90
17815;DHT22;9031;50.974;11.330;2024-01-15T00:24:07;1.00;99.90
17815;DHT22;9031;50.974;11.330;2024-01-15T00:26:33;0.90;99.90
17815;DHT22;9031;50.974;11.330;2024-01-15T00:28:58;1.00;99.90
17815;DHT22;9031;50.974;11.330;2024-01-15T00:31:24;0.90;99.90
17815;DHT22;9031;50.974;11.330;2024-01-15T00:33:49;0.90;99.90
17815;DHT22;9031;50.974;11.330;2024-01-15T00:36:15;0.90;99.90
17815;DHT22;9031;50.974;11.330;2024-01-15T00:38:42;0.90;99.90
17815;DHT22;9031;50.974;11.330;2024-01-15T00:41:07;1.00;99.90
17815;DHT22;9031;50.974;11.330;2024-01-15T00:43:33;1.00;99.90
17815;DHT22;9031;50.974;11.330;2024-01-15T00:46:02;1.10;99.90
17815;DHT22;9031;50.974;11.330;2024-01-15T00:48:27;1.00;99.90
17815;DHT22;9031;50.974;11.330;2024-01-15T00:50:53;1.00;99.90
17815;DHT22;9031;50.974;11.330;2024-01-15T00:53:19;0.90;99.90
17815;DHT22;9031;50.974;11.330;2024-01-15T00:55:48;0.90;99.90
17815;DHT22;9031;50.974;11.330;2024-01-15T00:58:14;0.90;99.90
17815;DHT22;9031;50.974;11.330;2024-01-15T01:00:39;0.90;99.90
17815;DHT22;9031;50.974;11.330;2024-01-15T01:03:05;0.90;99.90
17815;DHT22;9031;50.974;11.330;2024-01-15T01:05:30;0.90;99.90
17815;DHT22;9031;50.974;11.330;2024-01-15T01:07:56;0.90;99.90
17815;DHT22;9031;50.974;11.330;2024-01-15T01:10:21;0.90;99.90
17815;DHT22;9031;50.974;11.330;2024-01-15T01:12:47;0.80;99.90
17815;DHT22;9031;50.974;11.330;2024-01-15T01:15:12;0.80;99.90
17815;DHT22;9031;50.974;11.330;2024-01-15T01:17:38;0.80;99.90
17815;DHT22;9031;50.974;11.330;2024-01-15T01:20:03;0.70;99.90
17815;DHT22;9031;50.974;11.330;2024-01-15T01:22:29;0.70;99.90
17815;DHT22;9031;50.974;11.330;2024-01-15T01:24:55;0.70;99.90
17815;DHT22;9031;50.974;11.330;2024-01-15T01:27:21;0.70;99.90
17815;DHT22;9031;50.974;11.330;2024-01-15T01:29:47;0.80;99.90
17815;DHT22;9031;50.974;11.330;2024-01-15T01:32:12;0.70;99.90
17815;DHT22;9031;50.974;11.330;2024-01-15T01:34:41;0.70;99.90
17815;DHT22;9031;50.974;11.330;2024-01-15T01:37:10;0.80;99.90
17815;DHT22;9031;50.974;11.330;2024-01-15T01:39:38;0.70;99.90
17815;DHT22;9031;50.974;11.330;2024-01-15T01:42:04;0.70;99.90
17815;DHT22;9031;50.974;11.330;2024-01-15T01:44:30;0.70;99.90
17815;DHT22;9031;50.974;11.330;2024-01-15T01:46:56;0.70;99.90
17815;DHT22;9031;50.974;11.330;2024-01-15T01:49:23;0.80;99.90
17815;DHT22;9031;50.974;11.330;2024-01-15T01:51:49;0.80;99.90
17815;DHT22;9031;50.974;11.330;2024-01-15T01:54:14;0.80;99.90
17815;DHT22;9031;50.974;11.330;2024-01-15T01:56:41;0.90;99.90
17815;DHT22;9031;50.974;11.330;2024-01-15T01:59:09;0.90;99.90
17815;DHT22;9031;50.974;11.330;2024-01-15T02:01:36;0.80;99.90
17815;DHT22;9031;50.974;11.330;2024-01-15T02:04:02;0.80;99.90
17815;DHT22;9031;50.974;11.330;2024-01-15T02:06:28;0.80;99.90
17815;DHT22;9031;50.974;11.330;2024-01-15T02:08:54;0.70;99.90
17815;DHT22;9031;50.974;11.330;2024-01-15T02:11:19;0.70;99.90
17815;DHT22;9031;50.974;11.330;2024-01-15T02:13:45;0.80;99.90
17815;DHT22;9031;50.974;11.330;2024-01-15T02:16:11;0.80;99.90
17815;DHT22;9031;50.974;11.330;2024-01-15T02:18:44;0.80;99.90
17815;DHT22;9031;50.974;11.330;2024-01-15T02:21:10;0.80;99.90
17815;DHT22;9031;50.974;11.330;2024-01-15T02:23:36;0.90;99.90
17815;DHT22;9031;50.974;11.330;2024-01-15T02:26:02;0.70;99.90
17815;DHT22;9031;50.974;11.330;2024-01-15T02:28:27;0.60;99.90
17815;DHT22;9031;50.974;11.330;2024-01-15T02:30:53;0.60;99.90
17815;DHT22;9031;50.974;11.330;2024-01-15T02:33:18;0.60;99.90
17815;DHT22;9031;50.974;11.330;2024-01-15T02:35:44;0.50;99.90
17815;DHT22;9031;50.974;11.330;2024-01-15T02:38:12;0.50;99.90
17815;DHT22;9031;50.974;11.330;2024-01-15T02:40:38;0.50;99.90
17815;DHT22;9031;50.974;11.330;2024-01-15T02:43:04;0.50;99.90
17815;DHT22;9031;50.974;11.330;2024-01-15T02:45:30;0.60;99.90
17815;DHT22;9031;50.974;11.330;2024-01-15T02:47:56;0.70;99.90
17815;DHT22;9031;50.974;11.330;2024-01-15T02:50:21;0.70;99.90
17815;DHT22;9031;50.974;11.330;2024-01-15T02:52:47;0.70;99.90
17815;DHT22;9031;50.974;11.330;2024-01-15T02:55:12;0.70;99.90
17815;DHT22;9031;50.974;11.330;2024-01-15T02:57:38;0.70;99.90
17815;DHT22;9031;50.974;11.330;2024-01-15T03:00:04;0.60;99.90
17815;DHT22;9031;50.974;11.330;2024-01-15T03:02:29;0.70;99.90
17815;DHT22;9031;50.974;11.330;2024-01-15T03:04:57;0.60;99.90
17815;DHT22;9031;50.974;11.330;2024-01-15T03:07:22;0.60;99.90
17815;DHT22;9031;50.974;11.330;2024-01-15T03:09:48;0.60;99.90
17815;DHT22;9031;50.974;11.330;2024-01-15T03:12:13;0.60;99.90
17815;DHT22;9031;50.974;11.330;2024-01-15T03:14:39;0.70;99.90
17815;DHT22;9031;50.974;11.330;2024-01-15T03:17:04;0.80;99.90
17815;DHT22;9031;50.974;11.330;2024-01-15T03:19:30;0.80;99.90
17815;DHT22;9031;50.974;11.330;2024-01-15T03:21:56;0.70;99.90
17815;DHT22;9031;50.974;11.330;2024-01-15T03:24:22;0.70;99.90
17815;DHT22;9031;50.974;11.330;2024-01-15T03:26:47;0.80;99.90
17815;DHT22;9031;50.974;11.330;2024-01-15T03:29:13;0.60;99.90
17815;DHT22;9031;50.974;11.330;2024-01-15T03:31:38;0.70;99.90
17815;DHT22;9031;50.974;11.330;2024-01-15T03:34:04;0.60;99.90
17815;DHT22;9031;50.974;11.330;2024-01-15T03:36:29;0.50;99.90
17815;DHT22;9031;50.974;11.330;2024-01-15T03:38:55;0.50;99.90
17815;DHT22;9031;50.974;11.330;2024-01-15T03:41:20;0.40;99.90
17815;DHT22;9031;50.974;11.330;2024-01-15T03:43:46;0.40;99.90
17815;DHT22;9031;50.974;11.330;2024-01-15T03:46:12;0.40;99.90
17815;DHT22;9031;50.974;11.330;2024-01-15T03:48:38;0.40;99.90
17815;DHT22;9031;50.974;11.330;2024-01-15T03:51:03;0.40;99.90
17815;DHT22;9031;50.974;11.330;2024-01-15T03:53:29;0.40;99.90
17815;DHT22;9031;50.974;11.330;2024-01-15T03:55:54;0.30;99.90
17815;DHT22;9031;50.974;11.330;2024-01-15T03:58:20;0.30;99.90
17815;DHT22;9031;50.974;11.330;2024-01-15T04:00:45;0.30;99.90
17815;DHT22;9031;50.974;11.330;2024-01-15T04:03:11;0.30;99.90
17815;DHT22;9031;50.974;11.330;2024-01-15T04:05:37;0.30;99.90
17815;DHT22;9031;50.974;11.330;2024-01-15T04:08:03;0.20;99.90
17815;DHT22;9031;50.974;11.330;2024-01-15T04:10:29;0.20;99.90
17815;DHT22;9031;50.974;11.330;2024-01-15T04:12:54;0.10;99.90
17815;DHT22;9031;50.974;11.330;2024-01-15T04:15:20;0.10;99.90
17815;DHT22;9031;50.974;11.330;2024-01-15T04:17:47;0.10;99.90
17815;DHT22;9031;50.974;11.330;2024-01-15T04:20:12;0.10;99.90
17815;DHT22;9031;50.974;11.330;2024-01-15T04:22:38;0.10;99.90
17815;DHT22;9031;50.974;11.330;2024-01-15T04:25:03;0.10;99.90
17815;DHT22;9031;50.974;11.330;2024-01-15T04:27:29;0.10;99.90
17815;DHT22;9031;50.974;11.330;2024-01-15T04:29:55;0.10;99.90
17815;DHT22;9031;50.974;11.330;2024-01-15T04:32:20;0.00;99.90
17815;DHT22;9031;50.974;11.330;2024-01-15T04:34:46;0.00;99.90
17815;DHT22;9031;50.974;11.330;2024-01-15T04:37:13;0.00;99.90
17815;DHT22;9031;50.974;11.330;2024-01-15T04:39:38;0.00;99.90
17815;DHT22;9031;50.974;11.330;2024-01-15T04:42:04;0.00;99.90
17815;DHT22;9031;50.974;11.330;2024-01-15T04:44:29;0.00;99.90
17815;DHT22;9031;50.974;11.330;2024-01-15T04:46:55;0.00;99.90
17815;DHT22;9031;50.974;11.330;2024-01-15T04:49:20;0.00;99.90
17815;DHT22;9031;50.974;11.330;2024-01-15T04:51:46;0.00;99.90
17815;DHT22;9031;50.974;11.330;2024-01-15T04:54:11;0.00;99.90
17815;DHT22;9031;50.974;11.330;2024-01-15T04:56:37;0.00;99.90
17815;DHT22;9031;50.974;11.330;2024-01-15T04:59:03;0.10;99.90
17815;DHT22;9031;50.974;11.330;2024-01-15T05:01:32;0.10;99.90
17815;DHT22;9031;50.974;11.330;2024-01-15T05:03:58;0.10;99.90
17815;DHT22;9031;50.974;11.330;2024-01-15T05:06:23;0.20;99.90
17815;DHT22;9031;50.974;11.330;2024-01-15T05:08:49;0.20;99.90
17815;DHT22;9031;50.974;11.330;2024-01-15T05:11:14;0.20;99.90
17815;DHT22;9031;50.974;11.330;2024-01-15T05:13:40;0.30;99.90
17815;DHT22;9031;50.974;11.330;2024-01-15T05:16:06;0.30;99.90
17815;DHT22;9031;50.974;11.330;2024-01-15T05:18:31;0.30;99.90
17815;DHT22;9031;50.974;11.330;2024-01-15T05:20:57;0.20;99.90
17815;DHT22;9031;50.974;11.330;2024-01-15T05:23:22;0.20;99.90
17815;DHT22;9031;50.974;11.330;2024-01-15T05:25:48;0.10;99.90
17815;DHT22;9031;50.974;11.330;2024-01-15T05:28:14;0.10;99.90
17815;DHT22;9031;50.974;11.330;2024-01-15T05:30:39;0.10;99.90
17815;DHT22;9031;50.974;11.330;2024-01-15T05:33:05;0.10;99.90
17815;DHT22;9031;50.974;11.330;2024-01-15T05:35:30;0.10;99.90
17815;DHT22;9031;50.974;11.330;2024-01-15T05:37:56;0.00;99.90
17815;DHT22;9031;50.974;11.330;2024-01-15T05:40:21;0.00;99.90
17815;DHT22;9031;50.974;11.330;2024-01-15T05:42:47;0.00;99.90
17815;DHT22;9031;50.974;11.330;2024-01-15T05:45:12;0.00;99.90
17815;DHT22;9031;50.974;11.330;2024-01-15T05:47:38;0.00;99.90
17815;DHT22;9031;50.974;11.330;2024-01-15T05:50:03;0.00;99.90
17815;DHT22;9031;50.974;11.330;2024-01-15T05:52:30;0.00;99.90
17815;DHT22;9031;50.974;11.330;2024-01-15T05:54:55;0.00;99.90
17815;DHT22;9031;50.974;11.330;2024-01-15T05:57:21;0.00;99.90
17815;DHT22;9031;50.974;11.330;2024-01-15T05:59:46;0.00;99.90
17815;DHT22;9031;50.974;11.330;2024-01-15T06:02:12;0.00;99.90
17815;DHT22;9031;50.974;11.330;2024-01-15T06:04:37;0.10;99.90
17815;DHT22;9031;50.974;11.330;2024-01-15T06:07:03;0.10;99.90
17815;DHT22;9031;50.974;11.330;2024-01-15T06:09:28;0.00;99.90
17815;DHT22;9031;50.974;11.330;2024-01-15T06:11:54;0.00;99.90
17815;DHT22;9031;50.974;11.330;2024-01-15T06:14:20;0.00;99.90
17815;DHT22;9031;50.974;11.330;2024-01-15T06:16:45;0.10;99.90
17815;DHT22;9031;50.974;11.330;2024-01-15T06:19:11;0.10;99.90
17815;DHT22;9031;50.974;11.330;2024-01-15T06:21:36;0.20;99.90
17815;DHT22;9031;50.974;11.330;2024-01-15T06:24:02;0.20;99.90
17815;DHT22;9031;50.974;11.330;2024-01-15T06:26:27;0.30;99.90
17815;DHT22;9031;50.974;11.330;2024-01-15T06:28:53;0.30;99.90
17815;DHT22;9031;50.974;11.330;2024-01-15T06:31:18;0.30;99.90
17815;DHT22;9031;50.974;11.330;2024-01-15T06:33:44;0.20;99.90
17815;DHT22;9031;50.974;11.330;2024-01-15T06:36:12;0.20;99.90
17815;DHT22;9031;50.974;11.330;2024-01-15T06:38:38;0.20;99.90
17815;DHT22;9031;50.974;11.330;2024-01-15T06:41:03;0.10;99.90
17815;DHT22;9031;50.974;11.330;2024-01-15T06:43:29;0.10;99.90
17815;DHT22;9031;50.974;11.330;2024-01-15T06:45:54;0.10;99.90
17815;DHT22;9031;50.974;11.330;2024-01-15T06:48:20;0.10;99.90
17815;DHT22;9031;50.974;11.330;2024-01-15T06:50:46;0.10;99.90
17815;DHT22;9031;50.974;11.330;2024-01-15T06:53:11;0.10;99.90
17815;DHT22;9031;50.974;11.330;2024-01-15T06:55:38;0.10;99.90
17815;DHT22;9031;50.974;11.330;2024-01-15T06:58:04;0.20;99.90
17815;DHT22;9031;50.974;11.330;2024-01-15T07:00:29;0.20;99.90
17815;DHT22;9031;50.974;11.330;2024-01-15T07:02:55;0.20;99.90
17815;DHT22;9031;50.974;11.330;2024-01-15T07:05:21;0.20;99.90
17815;DHT22;9031;50.974;11.330;2024-01-15T07:07:46;0.20;99.90
17815;DHT22;9031;50.974;11.330;2024-01-15T07:10:13;0.20;99.90
17815;DHT22;9031;50.974;11.330;2024-01-15T07:12:38;0.30;99.90
17815;DHT22;9031;50.974;11.330;2024-01-15T07:15:04;0.40;99.90
17815;DHT22;9031;50.974;11.330;2024-01-15T07:17:32;0.40;99.90
17815;DHT22;9031;50.974;11.330;2024-01-15T07:19:58;0.50;99.90
17815;DHT22;9031;50.974;11.330;2024-01-15T07:22:23;0.50;99.90
17815;DHT22;9031;50.974;11.330;2024-01-15T07:24:49;0.50;99.90
17815;DHT22;9031;50.974;11.330;2024-01-15T07:27:14;0.50;99.90
17815;DHT22;9031;50.974;11.330;2024-01-15T07:29:40;0.60;99.90
17815;DHT22;9031;50.974;11.330;2024-01-15T07:32:05;0.60;99.90
17815;DHT22;9031;50.974;11.330;2024-01-15T07:34:33;0.60;99.90
17815;DHT22;9031;50.974;11.330;2024-01-15T07:36:58;0.60;99.90
17815;DHT22;9031;50.974;11.330;2024-01-15T07:39:24;0.50;99.90
17815;DHT22;9031;50.974;11.330;2024-01-15T07:41:51;0.50;99.90
17815;DHT22;9031;50.974;11.330;2024-01-15T07:44:16;0.50;99.90
17815;DHT22;9031;50.974;11.330;2024-01-15T07:46:45;0.40;99.90
17815;DHT22;9031;50.974;11.330;2024-01-15T07:49:11;0.40;99.90
17815;DHT22;9031;50.974;11.330;2024-01-15T07:51:37;0.50;99.90
17815;DHT22;9031;50.974;11.330;2024-01-15T07:54:03;0.50;99.90
17815;DHT22;9031;50.974;11.330;2024-01-15T07:56:28;0.40;99.90
17815;DHT22;9031;50.974;11.330;2024-01-15T07:58:54;0.40;99.90
17815;DHT22;9031;50.974;11.330;2024-01-15T08:01:19;0.30;99.90
17815;DHT22;9031;50.974;11.330;2024-01-15T08:03:45;0.40;99.90
17815;DHT22;9031;50.974;11.330;2024-01-15T08:06:10;0.40;99.90
17815;DHT22;9031;50.974;11.330;2024-01-15T08:08:37;0.40;99.90
17815;DHT22;9031;50.974;11.330;2024-01-15T08:11:03;0.40;99.90
17815;DHT22;9031;50.974;11.330;2024-01-15T08:13:28;0.40;99.90
17815;DHT22;9031;50.974;11.330;2024-01-15T08:15:54;0.40;99.90
17815;DHT22;9031;50.974;11.330;2024-01-15T08:18:19;0.40;99.90
17815;DHT22;9031;50.974;11.330;2024-01-15T08:20:47;0.40;99.90
17815;DHT22;9031;50.974;11.330;2024-01-15T08:23:12;0.30;99.90
17815;DHT22;9031;50.974;11.330;2024-01-15T08:25:38;0.40;99.90
17815;DHT22;9031;50.974;11.330;2024-01-15T08:28:03;0.40;99.90
17815;DHT22;9031;50.974;11.330;2024-01-15T08:30:29;0.50;99.90
17815;DHT22;9031;50.974;11.330;2024-01-15T08:32:55;0.50;99.90
17815;DHT22;9031;50.974;11.330;2024-01-15T08:35:20;0.50;99.90
17815;DHT22;9031;50.974;11.330;2024-01-15T08:37:50;0.60;99.90
17815;DHT22;9031;50.974;11.330;2024-01-15T08:40:16;0.60;99.90
17815;DHT22;9031;50.974;11.330;2024-01-15T08:42:42;0.60;99.90
17815;DHT22;9031;50.974;11.330;2024-01-15T08:45:08;0.80;99.90
17815;DHT22;9031;50.974;11.330;2024-01-15T08:47:34;1.00;99.90
17815;DHT22;9031;50.974;11.330;2024-01-15T08:50:00;1.10;99.90
17815;DHT22;9031;50.974;11.330;2024-01-15T08:52:26;1.10;99.90
17815;DHT22;9031;50.974;11.330;2024-01-15T08:54:51;1.10;99.90
17815;DHT22;9031;50.974;11.330;2024-01-15T08:57:17;1.30;99.90
17815;DHT22;9031;50.974;11.330;2024-01-15T08:59:42;1.20;99.90
17815;DHT22;9031;50.974;11.330;2024-01-15T09:02:08;1.10;99.90
17815;DHT22;9031;50.974;11.330;2024-01-15T09:04:34;1.50;99.90
17815;DHT22;9031;50.974;11.330;2024-01-15T09:06:59;1.70;99.90
17815;DHT22;9031;50.974;11.330;2024-01-15T09:09:25;1.80;99.90
17815;DHT22;9031;50.974;11.330;2024-01-15T09:11:51;2.00;99.90
17815;DHT22;9031;50.974;11.330;2024-01-15T09:14:16;2.10;99.90
17815;DHT22;9031;50.974;11.330;2024-01-15T09:16:42;2.30;99.90
17815;DHT22;9031;50.974;11.330;2024-01-15T09:19:08;2.00;99.90
17815;DHT22;9031;50.974;11.330;2024-01-15T09:21:33;1.90;99.90
17815;DHT22;9031;50.974;11.330;2024-01-15T09:23:59;2.10;99.90
17815;DHT22;9031;50.974;11.330;2024-01-15T09:26:24;2.20;99.90
17815;DHT22;9031;50.974;11.330;2024-01-15T09:28:50;2.30;99.90
17815;DHT22;9031;50.974;11.330;2024-01-15T09:31:17;2.40;99.90
17815;DHT22;9031;50.974;11.330;2024-01-15T09:33:43;2.50;99.90
17815;DHT22;9031;50.974;11.330;2024-01-15T09:36:09;2.70;99.90
17815;DHT22;9031;50.974;11.330;2024-01-15T09:38:35;2.80;99.90
17815;DHT22;9031;50.974;11.330;2024-01-15T09:41:00;3.40;99.90
17815;DHT22;9031;50.974;11.330;2024-01-15T09:43:26;4.10;99.90
17815;DHT22;9031;50.974;11.330;2024-01-15T09:45:53;4.60;99.90
17815;DHT22;9031;50.974;11.330;2024-01-15T09:48:19;4.80;99.90
17815;DHT22;9031;50.974;11.330;2024-01-15T09:50:46;4.90;99.90
17815;DHT22;9031;50.974;11.330;2024-01-15T09:53:14;5.30;99.90
17815;DHT22;9031;50.974;11.330;2024-01-15T09:55:41;5.60;99.90
17815;DHT22;9031;50.974;11.330;2024-01-15T09:58:06;5.80;99.90
17815;DHT22;9031;50.974;11.330;2024-01-15T10:00:33;6.00;99.90
17815;DHT22;9031;50.974;11.330;2024-01-15T10:03:03;6.40;99.90
17815;DHT22;9031;50.974;11.330;2024-01-15T10:05:28;6.40;99.90
17815;DHT22;9031;50.974;11.330;2024-01-15T10:07:56;6.30;99.90
17815;DHT22;9031;50.974;11.330;2024-01-15T10:10:22;4.50;99.90
17815;DHT22;9031;50.974;11.330;2024-01-15T10:12:49;3.20;99.90
17815;DHT22;9031;50.974;11.330;2024-01-15T10:15:15;2.60;99.90
17815;DHT22;9031;50.974;11.330;2024-01-15T10:17:41;2.60;99.90
17815;DHT22;9031;50.974;11.330;2024-01-15T10:20:12;2.50;99.90
17815;DHT22;9031;50.974;11.330;2024-01-15T10:22:41;2.30;99.90
17815;DHT22;9031;50.974;11.330;2024-01-15T10:25:12;2.30;99.90
17815;DHT22;9031;50.974;11.330;2024-01-15T10:27:39;2.30;99.90
17815;DHT22;9031;50.974;11.330;2024-01-15T10:30:06;2.30;99.90
17815;DHT22;9031;50.974;11.330;2024-01-15T10:32:32;2.30;99.90
17815;DHT22;9031;50.974;11.330;2024-01-15T10:34:57;2.30;99.90
17815;DHT22;9031;50.974;11.330;2024-01-15T10:37:24;2.30;99.90
17815;DHT22;9031;50.974;11.330;2024-01-15T10:39:50;2.30;99.90
17815;DHT22;9031;50.974;11.330;2024-01-15T10:42:16;2.20;99.90
17815;DHT22;9031;50.974;11.330;2024-01-15T10:44:43;2.10;99.90
17815;DHT22;9031;50.974;11.330;2024-01-15T10:47:09;2.10;99.90
17815;DHT22;9031;50.974;11.330;2024-01-15T10:49:35;2.00;99.90
17815;DHT22;9031;50.974;11.330;2024-01-15T10:52:04;1.90;99.90
17815;DHT22;9031;50.974;11.330;2024-01-15T10:54:30;1.90;99.90
17815;DHT22;9031;50.974;11.330;2024-01-15T10:56:58;1.80;99.90
17815;DHT22;9031;50.974;11.330;2024-01-15T10:59:24;2.00;99.90
17815;DHT22;9031;50.974;11.330;2024-01-15T11:01:51;2.20;99.90
17815;DHT22;9031;50.974;11.330;2024-01-15T11:04:23;2.30;99.90
17815;DHT22;9031;50.974;11.330;2024-01-15T11:06:53;2.20;99.90
17815;DHT22;9031;50.974;11.330;2024-01-15T11:09:21;2.50;99.90
17815;DHT22;9031;50.974;11.330;2024-01-15T11:11:48;2.70;99.90
17815;DHT22;9031;50.974;11.330;2024-01-15T11:17:00;2.70;99.90
17815;DHT22;9031;50.974;11.330;2024-01-15T11:19:42;2.40;99.90
17815;DHT22;9031;50.974;11.330;2024-01-15T11:22:09;2.40;99.90
17815;DHT22;9031;50.974;11.330;2024-01-15T11:24:36;2.50;99.90
17815;DHT22;9031;50.974;11.330;2024-01-15T11:27:02;2.60;99.90
17815;DHT22;9031;50.974;11.330;2024-01-15T11:31:57;2.90;99.90
17815;DHT22;9031;50.974;11.330;2024-01-15T11:34:49;2.90;99.90
17815;DHT22;9031;50.974;11.330;2024-01-15T11:37:15;3.00;99.90
17815;DHT22;9031;50.974;11.330;2024-01-15T11:39:42;3.00;99.90
17815;DHT22;9031;50.974;11.330;2024-01-15T11:42:09;3.10;99.90
17815;DHT22;9031;50.974;11.330;2024-01-15T11:44:34;3.30;99.90
17815;DHT22;9031;50.974;11.330;2024-01-15T11:47:10;3.40;99.90
17815;DHT22;9031;50.974;11.330;2024-01-15T11:50:02;3.40;99.90
17815;DHT22;9031;50.974;11.330;2024-01-15T11:52:33;3.30;99.90
17815;DHT22;9031;50.974;11.330;2024-01-15T12:00:09;2.90;99.90
17815;DHT22;9031;50.974;11.330;2024-01-15T12:02:34;2.90;99.90
17815;DHT22;9031;50.974;11.330;2024-01-15T12:05:00;3.30;99.90
17815;DHT22;9031;50.974;11.330;2024-01-15T12:07:26;3.40;99.90
17815;DHT22;9031;50.974;11.330;2024-01-15T12:09:51;3.50;99.90
17815;DHT22;9031;50.974;11.330;2024-01-15T12:14:58;3.50;99.90
17815;DHT22;9031;50.974;11.330;2024-01-15T12:17:23;3.50;99.90
17815;DHT22;9031;50.974;11.330;2024-01-15T12:19:49;3.40;99.90
17815;DHT22;9031;50.974;11.330;2024-01-15T12:22:14;3.40;99.90
17815;DHT22;9031;50.974;11.330;2024-01-15T12:24:40;3.20;99.90
17815;DHT22;9031;50.974;11.330;2024-01-15T12:27:07;3.20;99.90
17815;DHT22;9031;50.974;11.330;2024-01-15T12:29:33;3.30;99.90
17815;DHT22;9031;50.974;11.330;2024-01-15T12:31:58;3.50;99.90
17815;DHT22;9031;50.974;11.330;2024-01-15T12:34:24;3.30;99.90
17815;DHT22;9031;50.974;11.330;2024-01-15T12:36:49;2.90;99.90
17815;DHT22;9031;50.974;11.330;2024-01-15T12:39:15;2.60;99.90
17815;DHT22;9031;50.974;11.330;2024-01-15T12:41:41;2.60;99.90
17815;DHT22;9031;50.974;11.330;2024-01-15T12:44:06;3.00;99.90
17815;DHT22;9031;50.974;11.330;2024-01-15T12:46:32;3.30;99.90
17815;DHT22;9031;50.974;11.330;2024-01-15T12:48:57;3.50;99.90
17815;DHT22;9031;50.974;11.330;2024-01-15T12:51:26;3.70;99.90
17815;DHT22;9031;50.974;11.330;2024-01-15T12:53:53;3.70;99.90
17815;DHT22;9031;50.974;11.330;2024-01-15T12:56:18;3.60;99.90
17815;DHT22;9031;50.974;11.330;2024-01-15T12:58:44;3.50;99.90
17815;DHT22;9031;50.974;11.330;2024-01-15T13:01:09;3.40;99.90
17815;DHT22;9031;50.974;11.330;2024-01-15T13:03:35;3.10;99.90
17815;DHT22;9031;50.974;11.330;2024-01-15T13:06:01;3.00;99.90
17815;DHT22;9031;50.974;11.330;2024-01-15T13:08:26;2.90;99.90
17815;DHT22;9031;50.974;11.330;2024-01-15T13:10:54;3.00;99.90
17815;DHT22;9031;50.974;11.330;2024-01-15T13:13:22;2.90;99.90
17815;DHT22;9031;50.974;11.330;2024-01-15T13:15:47;2.80;99.90
17815;DHT22;9031;50.974;11.330;2024-01-15T13:18:13;2.70;99.90
17815;DHT22;9031;50.974;11.330;2024-01-15T13:20:38;2.70;99.90
17815;DHT22;9031;50.974;11.330;2024-01-15T13:23:04;2.50;99.90
17815;DHT22;9031;50.974;11.330;2024-01-15T13:25:29;2.40;99.90
17815;DHT22;9031;50.974;11.330;2024-01-15T13:27:55;2.50;99.90
17815;DHT22;9031;50.974;11.330;2024-01-15T13:30:20;2.50;99.90
17815;DHT22;9031;50.974;11.330;2024-01-15T13:32:46;2.50;99.90
17815;DHT22;9031;50.974;11.330;2024-01-15T13:35:12;2.40;99.90
17815;DHT22;9031;50.974;11.330;2024-01-15T13:37:38;2.40;99.90
17815;DHT22;9031;50.974;11.330;2024-01-15T13:40:07;2.30;99.90
17815;DHT22;9031;50.974;11.330;2024-01-15T13:42:35;2.30;99.90
17815;DHT22;9031;50.974;11.330;2024-01-15T13:45:04;2.20;99.90
17815;DHT22;9031;50.974;11.330;2024-01-15T13:47:31;2.20;99.90
17815;DHT22;9031;50.974;11.330;2024-01-15T13:49:57;2.20;99.90
17815;DHT22;9031;50.974;11.330;2024-01-15T13:52:22;2.20;99.90
17815;DHT22;9031;50.974;11.330;2024-01-15T13:54:48;2.10;99.90
17815;DHT22;9031;50.974;11.330;2024-01-15T13:57:13;2.10;99.90
17815;DHT22;9031;50.974;11.330;2024-01-15T13:59:39;2.20;99.90
17815;DHT22;9031;50.974;11.330;2024-01-15T14:02:05;2.20;99.90
17815;DHT22;9031;50.974;11.330;2024-01-15T14:04:30;2.20;99.90
17815;DHT22;9031;50.974;11.330;2024-01-15T14:06:56;2.40;99.90
17815;DHT22;9031;50.974;11.330;2024-01-15T14:09:21;2.50;99.90
17815;DHT22;9031;50.974;11.330;2024-01-15T14:11:47;2.60;99.90
17815;DHT22;9031;50.974;11.330;2024-01-15T14:14:13;2.70;99.90
17815;DHT22;9031;50.974;11.330;2024-01-15T14:16:39;2.80;99.90
17815;DHT22;9031;50.974;11.330;2024-01-15T14:19:04;2.70;99.90
17815;DHT22;9031;50.974;11.330;2024-01-15T14:21:31;2.60;99.90
17815;DHT22;9031;50.974;11.330;2024-01-15T14:23:57;2.40;99.90
17815;DHT22;9031;50.974;11.330;2024-01-15T14:26:22;2.30;99.90
17815;DHT22;9031;50.974;11.330;2024-01-15T14:28:48;2.20;99.90
17815;DHT22;9031;50.974;11.330;2024-01-15T14:31:13;2.20;99.90
17815;DHT22;9031;50.974;11.330;2024-01-15T14:33:39;2.20;99.90
17815;DHT22;9031;50.974;11.330;2024-01-15T14:36:05;2.20;99.90
17815;DHT22;9031;50.974;11.330;2024-01-15T14:38:30;2.30;99.90
17815;DHT22;9031;50.974;11.330;2024-01-15T14:40:56;2.20;99.90
17815;DHT22;9031;50.974;11.330;2024-01-15T14:43:21;2.20;99.90
17815;DHT22;9031;50.974;11.330;2024-01-15T14:45:47;2.20;99.90
17815;DHT22;9031;50.974;11.330;2024-01-15T14:48:12;2.10;99.90
17815;DHT22;9031;50.974;11.330;2024-01-15T14:50:39;2.10;99.90
17815;DHT22;9031;50.974;11.330;2024-01-15T14:53:05;2.00;99.90
17815;DHT22;9031;50.974;11.330;2024-01-15T14:55:31;2.10;99.90
17815;DHT22;9031;50.974;11.330;2024-01-15T14:57:57;2.10;99.90
17815;DHT22;9031;50.974;11.330;2024-01-15T15:00:23;2.00;99.90
17815;DHT22;9031;50.974;11.330;2024-01-15T15:02:49;2.10;99.90
17815;DHT22;9031;50.974;11.330;2024-01-15T15:05:14;2.10;99.90
17815;DHT22;9031;50.974;11.330;2024-01-15T15:07:42;2.00;99.90
17815;DHT22;9031;50.974;11.330;2024-01-15T15:10:08;2.10;99.90
17815;DHT22;9031;50.974;11.330;2024-01-15T15:12:36;2.10;99.90
17815;DHT22;9031;50.974;11.330;2024-01-15T15:15:02;2.00;99.90
17815;DHT22;9031;50.974;11.330;2024-01-15T15:17:27;2.00;99.90
17815;DHT22;9031;50.974;11.330;2024-01-15T15:19:53;1.90;99.90
17815;DHT22;9031;50.974;11.330;2024-01-15T15:22:21;2.00;99.90
17815;DHT22;9031;50.974;11.330;2024-01-15T15:24:46;1.90;99.90
17815;DHT22;9031;50.974;11.330;2024-01-15T15:27:12;1.90;99.90
17815;DHT22;9031;50.974;11.330;2024-01-15T15:29:37;1.90;99.90
17815;DHT22;9031;50.974;11.330;2024-01-15T15:32:03;1.80;99.90
17815;DHT22;9031;50.974;11.330;2024-01-15T15:34:29;1.90;99.90
17815;DHT22;9031;50.974;11.330;2024-01-15T15:36:54;1.90;99.90
17815;DHT22;9031;50.974;11.330;2024-01-15T15:39:20;1.90;99.90
17815;DHT22;9031;50.974;11.330;2024-01-15T15:41:45;1.90;99.90
17815;DHT22;9031;50.974;11.330;2024-01-15T15:44:11;1.90;99.90
17815;DHT22;9031;50.974;11.330;2024-01-15T15:46:38;1.90;99.90
17815;DHT22;9031;50.974;11.330;2024-01-15T15:49:04;1.90;99.90
17815;DHT22;9031;50.974;11.330;2024-01-15T15:51:32;1.90;99.90